sensor_id;sensor_type;location;lat;lon;timestamp;P1;durP1;ratioP1;P2;durP2;ratioP2
25153;SDS011;47555;51.038;6.280;2024-02-16T00:00:59;4.40;;;2.15;;
25153;SDS011;47555;51.038;6.280;2024-02-16T00:03:26;4.35;;;2.10;;
25153;SDS011;47555;51.038;6.280;2024-02-16T00:05:52;2.60;;;1.77;;
25153;SDS011;47555;51.038;6.280;2024-02-16T00:08:18;3.50;;;1.95;;
25153;SDS011;47555;51.038;6.280;2024-02-16T00:10:45;5.32;;;1.95;;
25153;SDS011;47555;51.038;6.280;2024-02-16T00:13:11;2.97;;;1.88;;
25153;SDS011;47555;51.038;6.280;2024-02-16T00:15:37;4.30;;;2.08;;
25153;SDS011;47555;51.038;6.280;2024-02-16T00:18:04;8.98;;;2.58;;
25153;SDS011;47555;51.038;6.280;2024-02-16T00:20:30;2.72;;;1.92;;
25153;SDS011;47555;51.038;6.280;2024-02-16T00:22:56;3.13;;;1.88;;
25153;SDS011;47555;51.038;6.280;2024-02-16T00:25:22;3.30;;;1.90;;
25153;SDS011;47555;51.038;6.280;2024-02-16T00:27:48;3.85;;;1.85;;
25153;SDS011;47555;51.038;6.280;2024-02-16T00:30:17;3.40;;;2.00;;
25153;SDS011;47555;51.038;6.280;2024-02-16T00:32:43;3.40;;;2.00;;
25153;SDS011;47555;51.038;6.280;2024-02-16T00:35:12;2.95;;;2.17;;
25153;SDS011;47555;51.038;6.280;2024-02-16T00:37:38;3.15;;;2.00;;
25153;SDS011;47555;51.038;6.280;2024-02-16T00:40:04;4.40;;;1.95;;
25153;SDS011;47555;51.038;6.280;2024-02-16T00:42:31;3.50;;;1.85;;
25153;SDS011;47555;51.038;6.280;2024-02-16T00:44:57;3.90;;;2.08;;
25153;SDS011;47555;51.038;6.280;2024-02-16T00:47:25;2.05;;;1.65;;
25153;SDS011;47555;51.038;6.280;2024-02-16T00:49:52;3.03;;;1.80;;
25153;SDS011;47555;51.038;6.280;2024-02-16T00:52:18;2.85;;;2.08;;
25153;SDS011;47555;51.038;6.280;2024-02-16T00:54:44;4.15;;;2.38;;
25153;SDS011;47555;51.038;6.280;2024-02-16T00:57:11;3.63;;;2.10;;
25153;SDS011;47555;51.038;6.280;2024-02-16T00:59:39;6.40;;;2.10;;
25153;SDS011;47555;51.038;6.280;2024-02-16T01:02:05;3.95;;;2.00;;
25153;SDS011;47555;51.038;6.280;2024-02-16T01:04:31;4.35;;;2.00;;
25153;SDS011;47555;51.038;6.280;2024-02-16T01:06:58;3.00;;;1.90;;
25153;SDS011;47555;51.038;6.280;2024-02-16T01:09:24;4.43;;;2.03;;
25153;SDS011;47555;51.038;6.280;2024-02-16T01:11:50;5.88;;;2.22;;
25153;SDS011;47555;51.038;6.280;2024-02-16T01:14:16;2.83;;;2.03;;
25153;SDS011;47555;51.038;6.280;2024-02-16T01:16:42;4.95;;;2.00;;
25153;SDS011;47555;51.038;6.280;2024-02-16T01:19:08;2.60;;;2.00;;
25153;SDS011;47555;51.038;6.280;2024-02-16T01:21:34;4.03;;;2.17;;
25153;SDS011;47555;51.038;6.280;2024-02-16T01:24:00;4.28;;;2.00;;
25153;SDS011;47555;51.038;6.280;2024-02-16T01:26:27;4.32;;;2.13;;
25153;SDS011;47555;51.038;6.280;2024-02-16T01:28:55;2.47;;;1.90;;
25153;SDS011;47555;51.038;6.280;2024-02-16T01:31:23;2.58;;;2.10;;
25153;SDS011;47555;51.038;6.280;2024-02-16T01:33:49;5.18;;;2.17;;
25153;SDS011;47555;51.038;6.280;2024-02-16T01:36:15;4.68;;;2.13;;
25153;SDS011;47555;51.038;6.280;2024-02-16T01:38:41;2.60;;;2.38;;
25153;SDS011;47555;51.038;6.280;2024-02-16T01:41:07;5.85;;;2.25;;
25153;SDS011;47555;51.038;6.280;2024-02-16T01:43:34;3.90;;;2.10;;
25153;SDS011;47555;51.038;6.280;2024-02-16T01:46:00;4.82;;;2.22;;
25153;SDS011;47555;51.038;6.280;2024-02-16T01:48:26;2.75;;;2.15;;
25153;SDS011;47555;51.038;6.280;2024-02-16T01:50:52;3.65;;;2.03;;
25153;SDS011;47555;51.038;6.280;2024-02-16T01:53:19;4.40;;;2.50;;
25153;SDS011;47555;51.038;6.280;2024-02-16T01:55:46;3.28;;;2.10;;
25153;SDS011;47555;51.038;6.280;2024-02-16T01:58:12;4.30;;;2.15;;
25153;SDS011;47555;51.038;6.280;2024-02-16T02:00:39;5.95;;;2.47;;
25153;SDS011;47555;51.038;6.280;2024-02-16T02:03:06;9.30;;;2.90;;
25153;SDS011;47555;51.038;6.280;2024-02-16T02:05:32;4.10;;;2.53;;
25153;SDS011;47555;51.038;6.280;2024-02-16T02:07:58;3.45;;;2.30;;
25153;SDS011;47555;51.038;6.280;2024-02-16T02:10:24;4.70;;;2.40;;
25153;SDS011;47555;51.038;6.280;2024-02-16T02:12:50;3.80;;;2.50;;
25153;SDS011;47555;51.038;6.280;2024-02-16T02:15:16;5.65;;;2.20;;
25153;SDS011;47555;51.038;6.280;2024-02-16T02:17:42;4.18;;;2.42;;
25153;SDS011;47555;51.038;6.280;2024-02-16T02:20:08;5.38;;;2.33;;
25153;SDS011;47555;51.038;6.280;2024-02-16T02:22:36;6.00;;;2.40;;
25153;SDS011;47555;51.038;6.280;2024-02-16T02:25:03;4.30;;;2.65;;
25153;SDS011;47555;51.038;6.280;2024-02-16T02:27:30;3.33;;;2.13;;
25153;SDS011;47555;51.038;6.280;2024-02-16T02:29:56;5.47;;;2.40;;
25153;SDS011;47555;51.038;6.280;2024-02-16T02:32:23;3.63;;;2.20;;
25153;SDS011;47555;51.038;6.280;2024-02-16T02:34:49;4.20;;;2.10;;
25153;SDS011;47555;51.038;6.280;2024-02-16T02:37:15;7.05;;;2.35;;
25153;SDS011;47555;51.038;6.280;2024-02-16T02:39:41;5.55;;;2.08;;
25153;SDS011;47555;51.038;6.280;2024-02-16T02:42:09;6.72;;;2.40;;
25153;SDS011;47555;51.038;6.280;2024-02-16T02:44:35;4.90;;;2.42;;
25153;SDS011;47555;51.038;6.280;2024-02-16T02:47:01;4.47;;;3.03;;
25153;SDS011;47555;51.038;6.280;2024-02-16T02:49:27;5.38;;;2.63;;
25153;SDS011;47555;51.038;6.280;2024-02-16T02:51:53;5.40;;;2.50;;
25153;SDS011;47555;51.038;6.280;2024-02-16T02:54:19;2.50;;;2.30;;
25153;SDS011;47555;51.038;6.280;2024-02-16T02:56:46;5.32;;;2.35;;
25153;SDS011;47555;51.038;6.280;2024-02-16T02:59:12;5.88;;;2.50;;
25153;SDS011;47555;51.038;6.280;2024-02-16T03:01:38;4.55;;;2.45;;
25153;SDS011;47555;51.038;6.280;2024-02-16T03:04:04;4.10;;;2.40;;
25153;SDS011;47555;51.038;6.280;2024-02-16T03:06:30;4.97;;;2.70;;
25153;SDS011;47555;51.038;6.280;2024-02-16T03:08:57;4.15;;;2.90;;
25153;SDS011;47555;51.038;6.280;2024-02-16T03:11:23;6.70;;;2.45;;
25153;SDS011;47555;51.038;6.280;2024-02-16T03:13:48;5.95;;;2.65;;
25153;SDS011;47555;51.038;6.280;2024-02-16T03:16:14;2.75;;;2.20;;
25153;SDS011;47555;51.038;6.280;2024-02-16T03:18:40;5.45;;;2.53;;
25153;SDS011;47555;51.038;6.280;2024-02-16T03:21:07;4.85;;;2.58;;
25153;SDS011;47555;51.038;6.280;2024-02-16T03:23:33;3.55;;;2.20;;
25153;SDS011;47555;51.038;6.280;2024-02-16T03:25:59;5.95;;;2.45;;
25153;SDS011;47555;51.038;6.280;2024-02-16T03:28:25;3.40;;;2.45;;
25153;SDS011;47555;51.038;6.280;2024-02-16T03:30:51;3.97;;;2.45;;
25153;SDS011;47555;51.038;6.280;2024-02-16T03:33:17;3.92;;;2.50;;
25153;SDS011;47555;51.038;6.280;2024-02-16T03:35:43;4.35;;;2.65;;
25153;SDS011;47555;51.038;6.280;2024-02-16T03:38:09;5.65;;;2.80;;
25153;SDS011;47555;51.038;6.280;2024-02-16T03:40:35;4.03;;;2.47;;
25153;SDS011;47555;51.038;6.280;2024-02-16T03:43:01;3.33;;;2.53;;
25153;SDS011;47555;51.038;6.280;2024-02-16T03:45:27;4.32;;;2.58;;
25153;SDS011;47555;51.038;6.280;2024-02-16T03:47:53;4.53;;;2.55;;
25153;SDS011;47555;51.038;6.280;2024-02-16T03:50:19;2.97;;;2.38;;
25153;SDS011;47555;51.038;6.280;2024-02-16T03:52:45;5.78;;;2.58;;
25153;SDS011;47555;51.038;6.280;2024-02-16T03:55:11;4.75;;;2.40;;
25153;SDS011;47555;51.038;6.280;2024-02-16T03:57:37;3.22;;;2.30;;
25153;SDS011;47555;51.038;6.280;2024-02-16T04:00:04;4.28;;;2.40;;
25153;SDS011;47555;51.038;6.280;2024-02-16T04:02:31;3.47;;;2.17;;
25153;SDS011;47555;51.038;6.280;2024-02-16T04:04:57;3.63;;;2.10;;
25153;SDS011;47555;51.038;6.280;2024-02-16T04:07:23;2.25;;;2.05;;
25153;SDS011;47555;51.038;6.280;2024-02-16T04:09:49;2.47;;;2.28;;
25153;SDS011;47555;51.038;6.280;2024-02-16T04:12:15;3.28;;;2.40;;
25153;SDS011;47555;51.038;6.280;2024-02-16T04:14:41;3.72;;;2.15;;
25153;SDS011;47555;51.038;6.280;2024-02-16T04:17:08;2.88;;;1.95;;
25153;SDS011;47555;51.038;6.280;2024-02-16T04:19:36;3.22;;;1.95;;
25153;SDS011;47555;51.038;6.280;2024-02-16T04:22:02;3.47;;;2.40;;
25153;SDS011;47555;51.038;6.280;2024-02-16T04:24:28;5.22;;;3.08;;
25153;SDS011;47555;51.038;6.280;2024-02-16T04:26:54;4.93;;;2.47;;
25153;SDS011;47555;51.038;6.280;2024-02-16T04:29:20;3.85;;;2.63;;
25153;SDS011;47555;51.038;6.280;2024-02-16T04:31:46;3.40;;;2.70;;
25153;SDS011;47555;51.038;6.280;2024-02-16T04:34:13;4.38;;;2.60;;
25153;SDS011;47555;51.038;6.280;2024-02-16T04:36:40;5.70;;;2.97;;
25153;SDS011;47555;51.038;6.280;2024-02-16T04:39:06;3.28;;;2.20;;
25153;SDS011;47555;51.038;6.280;2024-02-16T04:41:35;4.68;;;2.70;;
25153;SDS011;47555;51.038;6.280;2024-02-16T04:44:01;3.13;;;2.58;;
25153;SDS011;47555;51.038;6.280;2024-02-16T04:46:26;4.63;;;2.45;;
25153;SDS011;47555;51.038;6.280;2024-02-16T04:48:52;3.35;;;2.33;;
25153;SDS011;47555;51.038;6.280;2024-02-16T04:51:19;2.50;;;2.10;;
25153;SDS011;47555;51.038;6.280;2024-02-16T04:53:45;3.58;;;2.60;;
25153;SDS011;47555;51.038;6.280;2024-02-16T04:56:11;4.00;;;2.53;;
25153;SDS011;47555;51.038;6.280;2024-02-16T04:58:40;3.88;;;2.90;;
25153;SDS011;47555;51.038;6.280;2024-02-16T05:01:06;3.38;;;2.38;;
25153;SDS011;47555;51.038;6.280;2024-02-16T05:03:32;4.32;;;2.40;;
25153;SDS011;47555;51.038;6.280;2024-02-16T05:05:59;6.13;;;2.88;;
25153;SDS011;47555;51.038;6.280;2024-02-16T05:08:25;5.63;;;2.53;;
25153;SDS011;47555;51.038;6.280;2024-02-16T05:10:51;4.50;;;2.67;;
25153;SDS011;47555;51.038;6.280;2024-02-16T05:13:17;3.40;;;2.40;;
25153;SDS011;47555;51.038;6.280;2024-02-16T05:15:43;4.43;;;2.72;;
25153;SDS011;47555;51.038;6.280;2024-02-16T05:18:09;4.57;;;2.78;;
25153;SDS011;47555;51.038;6.280;2024-02-16T05:20:37;5.45;;;2.45;;
25153;SDS011;47555;51.038;6.280;2024-02-16T05:23:03;2.95;;;2.60;;
25153;SDS011;47555;51.038;6.280;2024-02-16T05:25:29;4.93;;;2.75;;
25153;SDS011;47555;51.038;6.280;2024-02-16T05:27:55;2.85;;;2.40;;
25153;SDS011;47555;51.038;6.280;2024-02-16T05:30:21;6.72;;;2.70;;
25153;SDS011;47555;51.038;6.280;2024-02-16T05:32:47;4.38;;;2.60;;
25153;SDS011;47555;51.038;6.280;2024-02-16T05:35:14;4.03;;;2.28;;
25153;SDS011;47555;51.038;6.280;2024-02-16T05:37:42;2.75;;;2.38;;
25153;SDS011;47555;51.038;6.280;2024-02-16T05:40:09;3.47;;;2.75;;
25153;SDS011;47555;51.038;6.280;2024-02-16T05:42:54;4.80;;;2.45;;
25153;SDS011;47555;51.038;6.280;2024-02-16T05:45:23;5.53;;;2.67;;
25153;SDS011;47555;51.038;6.280;2024-02-16T05:47:49;3.88;;;2.75;;
25153;SDS011;47555;51.038;6.280;2024-02-16T05:50:15;8.30;;;3.10;;
25153;SDS011;47555;51.038;6.280;2024-02-16T05:52:41;4.15;;;2.90;;
25153;SDS011;47555;51.038;6.280;2024-02-16T05:55:08;4.72;;;2.60;;
25153;SDS011;47555;51.038;6.280;2024-02-16T05:57:35;5.38;;;3.08;;
25153;SDS011;47555;51.038;6.280;2024-02-16T06:00:01;4.55;;;2.55;;
25153;SDS011;47555;51.038;6.280;2024-02-16T06:02:29;3.53;;;2.53;;
25153;SDS011;47555;51.038;6.280;2024-02-16T06:04:55;4.40;;;2.58;;
25153;SDS011;47555;51.038;6.280;2024-02-16T06:07:21;5.50;;;2.75;;
25153;SDS011;47555;51.038;6.280;2024-02-16T06:09:47;3.95;;;2.67;;
25153;SDS011;47555;51.038;6.280;2024-02-16T06:12:13;3.47;;;2.40;;
25153;SDS011;47555;51.038;6.280;2024-02-16T06:14:40;5.63;;;2.50;;
25153;SDS011;47555;51.038;6.280;2024-02-16T06:17:06;3.70;;;2.35;;
25153;SDS011;47555;51.038;6.280;2024-02-16T06:19:33;4.80;;;2.67;;
25153;SDS011;47555;51.038;6.280;2024-02-16T06:21:59;6.65;;;3.05;;
25153;SDS011;47555;51.038;6.280;2024-02-16T06:24:25;6.38;;;2.53;;
25153;SDS011;47555;51.038;6.280;2024-02-16T06:26:52;5.47;;;2.80;;
25153;SDS011;47555;51.038;6.280;2024-02-16T06:29:19;4.35;;;2.65;;
25153;SDS011;47555;51.038;6.280;2024-02-16T06:31:48;4.60;;;2.70;;
25153;SDS011;47555;51.038;6.280;2024-02-16T06:34:14;5.57;;;2.63;;
25153;SDS011;47555;51.038;6.280;2024-02-16T06:36:40;5.90;;;2.60;;
25153;SDS011;47555;51.038;6.280;2024-02-16T06:39:06;5.50;;;2.70;;
25153;SDS011;47555;51.038;6.280;2024-02-16T06:41:32;4.00;;;2.78;;
25153;SDS011;47555;51.038;6.280;2024-02-16T06:43:59;5.03;;;2.65;;
25153;SDS011;47555;51.038;6.280;2024-02-16T06:46:25;5.30;;;2.72;;
25153;SDS011;47555;51.038;6.280;2024-02-16T06:48:52;3.03;;;2.55;;
25153;SDS011;47555;51.038;6.280;2024-02-16T06:51:21;4.65;;;2.75;;
25153;SDS011;47555;51.038;6.280;2024-02-16T06:53:47;5.03;;;2.70;;
25153;SDS011;47555;51.038;6.280;2024-02-16T06:56:13;4.32;;;2.92;;
25153;SDS011;47555;51.038;6.280;2024-02-16T06:58:39;7.25;;;3.78;;
25153;SDS011;47555;51.038;6.280;2024-02-16T07:01:05;5.18;;;2.78;;
25153;SDS011;47555;51.038;6.280;2024-02-16T07:03:32;5.75;;;3.00;;
25153;SDS011;47555;51.038;6.280;2024-02-16T07:05:58;5.30;;;3.47;;
25153;SDS011;47555;51.038;6.280;2024-02-16T07:08:24;6.93;;;3.08;;
25153;SDS011;47555;51.038;6.280;2024-02-16T07:10:50;6.07;;;3.30;;
25153;SDS011;47555;51.038;6.280;2024-02-16T07:13:18;3.25;;;2.83;;
25153;SDS011;47555;51.038;6.280;2024-02-16T07:15:44;8.57;;;2.85;;
25153;SDS011;47555;51.038;6.280;2024-02-16T07:18:10;7.00;;;3.08;;
25153;SDS011;47555;51.038;6.280;2024-02-16T07:20:36;8.35;;;2.95;;
25153;SDS011;47555;51.038;6.280;2024-02-16T07:23:03;5.65;;;3.00;;
25153;SDS011;47555;51.038;6.280;2024-02-16T07:25:29;4.13;;;2.92;;
25153;SDS011;47555;51.038;6.280;2024-02-16T07:27:55;5.00;;;3.00;;
25153;SDS011;47555;51.038;6.280;2024-02-16T07:30:21;5.00;;;3.35;;
25153;SDS011;47555;51.038;6.280;2024-02-16T07:32:50;4.65;;;2.60;;
25153;SDS011;47555;51.038;6.280;2024-02-16T07:35:17;6.78;;;2.60;;
25153;SDS011;47555;51.038;6.280;2024-02-16T07:37:43;5.13;;;3.15;;
25153;SDS011;47555;51.038;6.280;2024-02-16T07:40:09;4.47;;;2.70;;
25153;SDS011;47555;51.038;6.280;2024-02-16T07:42:39;4.57;;;2.97;;
25153;SDS011;47555;51.038;6.280;2024-02-16T07:45:05;4.10;;;2.72;;
25153;SDS011;47555;51.038;6.280;2024-02-16T07:47:31;6.95;;;2.92;;
25153;SDS011;47555;51.038;6.280;2024-02-16T07:49:57;7.30;;;2.80;;
25153;SDS011;47555;51.038;6.280;2024-02-16T07:52:23;5.13;;;2.50;;
25153;SDS011;47555;51.038;6.280;2024-02-16T07:54:49;5.13;;;2.75;;
25153;SDS011;47555;51.038;6.280;2024-02-16T07:57:16;3.63;;;2.92;;
25153;SDS011;47555;51.038;6.280;2024-02-16T07:59:42;5.35;;;2.60;;
25153;SDS011;47555;51.038;6.280;2024-02-16T08:02:09;5.93;;;2.67;;
25153;SDS011;47555;51.038;6.280;2024-02-16T08:04:35;4.63;;;2.60;;
25153;SDS011;47555;51.038;6.280;2024-02-16T08:07:01;6.22;;;3.10;;
25153;SDS011;47555;51.038;6.280;2024-02-16T08:09:27;5.70;;;2.88;;
25153;SDS011;47555;51.038;6.280;2024-02-16T08:11:53;5.00;;;2.70;;
25153;SDS011;47555;51.038;6.280;2024-02-16T08:14:19;7.00;;;2.53;;
25153;SDS011;47555;51.038;6.280;2024-02-16T08:16:45;5.32;;;3.00;;
25153;SDS011;47555;51.038;6.280;2024-02-16T08:19:11;4.30;;;2.85;;
25153;SDS011;47555;51.038;6.280;2024-02-16T08:21:38;4.38;;;2.42;;
25153;SDS011;47555;51.038;6.280;2024-02-16T08:24:05;5.68;;;2.80;;
25153;SDS011;47555;51.038;6.280;2024-02-16T08:26:31;5.80;;;2.92;;
25153;SDS011;47555;51.038;6.280;2024-02-16T08:28:57;5.10;;;2.67;;
25153;SDS011;47555;51.038;6.280;2024-02-16T08:31:23;6.03;;;2.50;;
25153;SDS011;47555;51.038;6.280;2024-02-16T08:33:49;3.65;;;2.50;;
25153;SDS011;47555;51.038;6.280;2024-02-16T08:36:15;6.40;;;3.03;;
25153;SDS011;47555;51.038;6.280;2024-02-16T08:38:41;3.95;;;2.42;;
25153;SDS011;47555;51.038;6.280;2024-02-16T08:41:07;3.85;;;2.67;;
25153;SDS011;47555;51.038;6.280;2024-02-16T08:43:33;5.65;;;2.60;;
25153;SDS011;47555;51.038;6.280;2024-02-16T08:45:59;4.38;;;2.92;;
25153;SDS011;47555;51.038;6.280;2024-02-16T08:48:25;6.38;;;2.53;;
25153;SDS011;47555;51.038;6.280;2024-02-16T08:50:51;4.70;;;2.42;;
25153;SDS011;47555;51.038;6.280;2024-02-16T08:53:17;4.53;;;2.63;;
25153;SDS011;47555;51.038;6.280;2024-02-16T08:55:43;3.13;;;2.45;;
25153;SDS011;47555;51.038;6.280;2024-02-16T08:58:09;5.63;;;2.60;;
25153;SDS011;47555;51.038;6.280;2024-02-16T09:00:35;8.60;;;3.20;;
25153;SDS011;47555;51.038;6.280;2024-02-16T09:03:01;4.88;;;2.50;;
25153;SDS011;47555;51.038;6.280;2024-02-16T09:05:28;4.03;;;2.60;;
25153;SDS011;47555;51.038;6.280;2024-02-16T09:07:54;5.40;;;2.83;;
25153;SDS011;47555;51.038;6.280;2024-02-16T09:10:20;6.07;;;2.65;;
25153;SDS011;47555;51.038;6.280;2024-02-16T09:12:46;4.32;;;2.70;;
25153;SDS011;47555;51.038;6.280;2024-02-16T09:15:12;8.27;;;3.05;;
25153;SDS011;47555;51.038;6.280;2024-02-16T09:17:38;5.47;;;2.75;;
25153;SDS011;47555;51.038;6.280;2024-02-16T09:20:04;5.75;;;2.65;;
25153;SDS011;47555;51.038;6.280;2024-02-16T09:22:33;6.43;;;2.63;;
25153;SDS011;47555;51.038;6.280;2024-02-16T09:25:01;6.88;;;3.00;;
25153;SDS011;47555;51.038;6.280;2024-02-16T09:27:28;10.23;;;3.50;;
25153;SDS011;47555;51.038;6.280;2024-02-16T09:29:54;5.10;;;3.08;;
25153;SDS011;47555;51.038;6.280;2024-02-16T09:32:19;8.65;;;3.58;;
25153;SDS011;47555;51.038;6.280;2024-02-16T09:34:45;4.93;;;3.10;;
25153;SDS011;47555;51.038;6.280;2024-02-16T09:37:11;10.68;;;3.75;;
25153;SDS011;47555;51.038;6.280;2024-02-16T09:39:37;5.28;;;3.10;;
25153;SDS011;47555;51.038;6.280;2024-02-16T09:42:04;7.45;;;2.92;;
25153;SDS011;47555;51.038;6.280;2024-02-16T09:44:30;6.13;;;3.53;;
25153;SDS011;47555;51.038;6.280;2024-02-16T09:46:59;5.82;;;3.53;;
25153;SDS011;47555;51.038;6.280;2024-02-16T09:49:27;7.32;;;3.22;;
25153;SDS011;47555;51.038;6.280;2024-02-16T09:51:53;4.63;;;3.17;;
25153;SDS011;47555;51.038;6.280;2024-02-16T09:54:21;6.45;;;3.00;;
25153;SDS011;47555;51.038;6.280;2024-02-16T09:56:47;6.85;;;3.58;;
25153;SDS011;47555;51.038;6.280;2024-02-16T09:59:13;6.45;;;2.83;;
25153;SDS011;47555;51.038;6.280;2024-02-16T10:01:39;6.45;;;2.92;;
25153;SDS011;47555;51.038;6.280;2024-02-16T10:04:05;5.63;;;3.58;;
25153;SDS011;47555;51.038;6.280;2024-02-16T10:06:32;7.80;;;2.97;;
25153;SDS011;47555;51.038;6.280;2024-02-16T10:08:58;8.10;;;3.47;;
25153;SDS011;47555;51.038;6.280;2024-02-16T10:11:27;8.30;;;3.13;;
25153;SDS011;47555;51.038;6.280;2024-02-16T10:13:59;6.15;;;3.40;;
25153;SDS011;47555;51.038;6.280;2024-02-16T10:16:29;5.03;;;3.28;;
25153;SDS011;47555;51.038;6.280;2024-02-16T10:19:05;8.60;;;3.35;;
25153;SDS011;47555;51.038;6.280;2024-02-16T10:21:32;10.38;;;3.85;;
25153;SDS011;47555;51.038;6.280;2024-02-16T10:24:02;10.05;;;3.78;;
25153;SDS011;47555;51.038;6.280;2024-02-16T10:26:29;7.22;;;4.05;;
25153;SDS011;47555;51.038;6.280;2024-02-16T10:28:56;8.68;;;3.40;;
25153;SDS011;47555;51.038;6.280;2024-02-16T10:31:25;8.93;;;4.00;;
25153;SDS011;47555;51.038;6.280;2024-02-16T10:33:56;7.45;;;3.78;;
25153;SDS011;47555;51.038;6.280;2024-02-16T10:36:22;6.80;;;3.63;;
25153;SDS011;47555;51.038;6.280;2024-02-16T10:38:50;7.55;;;3.13;;
25153;SDS011;47555;51.038;6.280;2024-02-16T10:41:17;10.90;;;3.90;;
25153;SDS011;47555;51.038;6.280;2024-02-16T10:43:44;7.93;;;3.92;;
25153;SDS011;47555;51.038;6.280;2024-02-16T10:46:12;7.28;;;3.65;;
25153;SDS011;47555;51.038;6.280;2024-02-16T10:48:38;8.82;;;3.80;;
25153;SDS011;47555;51.038;6.280;2024-02-16T10:51:04;7.40;;;3.92;;
25153;SDS011;47555;51.038;6.280;2024-02-16T10:53:32;6.88;;;4.10;;
25153;SDS011;47555;51.038;6.280;2024-02-16T10:55:58;6.85;;;3.45;;
25153;SDS011;47555;51.038;6.280;2024-02-16T10:58:27;8.18;;;3.70;;
25153;SDS011;47555;51.038;6.280;2024-02-16T11:00:54;6.15;;;3.47;;
25153;SDS011;47555;51.038;6.280;2024-02-16T11:03:24;8.45;;;3.40;;
25153;SDS011;47555;51.038;6.280;2024-02-16T11:05:51;6.70;;;3.65;;
25153;SDS011;47555;51.038;6.280;2024-02-16T11:08:18;7.53;;;3.88;;
25153;SDS011;47555;51.038;6.280;2024-02-16T11:10:54;7.40;;;4.25;;
25153;SDS011;47555;51.038;6.280;2024-02-16T11:13:24;9.55;;;3.72;;
25153;SDS011;47555;51.038;6.280;2024-02-16T11:16:00;9.77;;;4.05;;
25153;SDS011;47555;51.038;6.280;2024-02-16T11:18:27;5.35;;;3.72;;
25153;SDS011;47555;51.038;6.280;2024-02-16T11:20:54;7.78;;;4.32;;
25153;SDS011;47555;51.038;6.280;2024-02-16T11:23:24;6.35;;;3.60;;
25153;SDS011;47555;51.038;6.280;2024-02-16T11:25:50;5.70;;;3.70;;
25153;SDS011;47555;51.038;6.280;2024-02-16T11:28:16;7.25;;;3.80;;
25153;SDS011;47555;51.038;6.280;2024-02-16T11:30:43;8.85;;;4.25;;
25153;SDS011;47555;51.038;6.280;2024-02-16T11:33:12;7.95;;;4.32;;
25153;SDS011;47555;51.038;6.280;2024-02-16T11:35:39;9.93;;;4.25;;
25153;SDS011;47555;51.038;6.280;2024-02-16T11:38:05;6.75;;;3.90;;
25153;SDS011;47555;51.038;6.280;2024-02-16T11:40:31;6.78;;;4.43;;
25153;SDS011;47555;51.038;6.280;2024-02-16T11:43:00;7.80;;;4.05;;
25153;SDS011;47555;51.038;6.280;2024-02-16T11:45:26;7.05;;;4.15;;
25153;SDS011;47555;51.038;6.280;2024-02-16T11:48:02;7.05;;;3.88;;
25153;SDS011;47555;51.038;6.280;2024-02-16T11:50:28;9.23;;;4.20;;
25153;SDS011;47555;51.038;6.280;2024-02-16T11:52:54;7.82;;;4.10;;
25153;SDS011;47555;51.038;6.280;2024-02-16T11:55:20;9.52;;;4.10;;
25153;SDS011;47555;51.038;6.280;2024-02-16T11:57:46;11.18;;;4.75;;
25153;SDS011;47555;51.038;6.280;2024-02-16T12:00:15;5.78;;;4.35;;
25153;SDS011;47555;51.038;6.280;2024-02-16T12:02:41;7.20;;;3.95;;
25153;SDS011;47555;51.038;6.280;2024-02-16T12:05:07;8.00;;;3.88;;
25153;SDS011;47555;51.038;6.280;2024-02-16T12:07:36;8.15;;;4.05;;
25153;SDS011;47555;51.038;6.280;2024-02-16T12:10:05;5.75;;;4.15;;
25153;SDS011;47555;51.038;6.280;2024-02-16T12:12:32;7.93;;;4.80;;
25153;SDS011;47555;51.038;6.280;2024-02-16T12:14:58;7.75;;;4.80;;
25153;SDS011;47555;51.038;6.280;2024-02-16T12:17:24;7.50;;;4.55;;
25153;SDS011;47555;51.038;6.280;2024-02-16T12:19:50;9.50;;;5.20;;
25153;SDS011;47555;51.038;6.280;2024-02-16T12:22:17;8.45;;;5.30;;
25153;SDS011;47555;51.038;6.280;2024-02-16T12:24:44;7.85;;;5.22;;
25153;SDS011;47555;51.038;6.280;2024-02-16T12:27:10;7.93;;;4.63;;
25153;SDS011;47555;51.038;6.280;2024-02-16T12:29:36;7.93;;;5.18;;
25153;SDS011;47555;51.038;6.280;2024-02-16T12:32:02;9.20;;;5.53;;
25153;SDS011;47555;51.038;6.280;2024-02-16T12:34:28;9.75;;;5.20;;
25153;SDS011;47555;51.038;6.280;2024-02-16T12:36:54;10.55;;;6.18;;
25153;SDS011;47555;51.038;6.280;2024-02-16T12:39:20;10.75;;;6.10;;
25153;SDS011;47555;51.038;6.280;2024-02-16T12:41:46;10.63;;;6.65;;
25153;SDS011;47555;51.038;6.280;2024-02-16T12:44:15;12.63;;;7.05;;
25153;SDS011;47555;51.038;6.280;2024-02-16T12:46:41;12.38;;;6.72;;
25153;SDS011;47555;51.038;6.280;2024-02-16T12:49:08;12.43;;;6.57;;
25153;SDS011;47555;51.038;6.280;2024-02-16T12:51:34;12.70;;;6.57;;
25153;SDS011;47555;51.038;6.280;2024-02-16T12:54:00;11.80;;;7.20;;
25153;SDS011;47555;51.038;6.280;2024-02-16T12:56:29;9.25;;;6.15;;
25153;SDS011;47555;51.038;6.280;2024-02-16T12:58:55;10.60;;;7.25;;
25153;SDS011;47555;51.038;6.280;2024-02-16T13:01:21;12.07;;;6.95;;
25153;SDS011;47555;51.038;6.280;2024-02-16T13:03:47;11.02;;;7.90;;
25153;SDS011;47555;51.038;6.280;2024-02-16T13:06:13;13.45;;;7.25;;
25153;SDS011;47555;51.038;6.280;2024-02-16T13:08:39;14.60;;;8.07;;
25153;SDS011;47555;51.038;6.280;2024-02-16T13:11:05;12.93;;;7.65;;
25153;SDS011;47555;51.038;6.280;2024-02-16T13:13:31;13.95;;;7.78;;
25153;SDS011;47555;51.038;6.280;2024-02-16T13:15:57;15.32;;;8.10;;
25153;SDS011;47555;51.038;6.280;2024-02-16T13:18:24;13.65;;;7.85;;
25153;SDS011;47555;51.038;6.280;2024-02-16T13:20:50;14.52;;;7.30;;
25153;SDS011;47555;51.038;6.280;2024-02-16T13:23:16;10.65;;;6.97;;
25153;SDS011;47555;51.038;6.280;2024-02-16T13:25:42;13.73;;;7.57;;
25153;SDS011;47555;51.038;6.280;2024-02-16T13:28:08;11.07;;;7.93;;
25153;SDS011;47555;51.038;6.280;2024-02-16T13:30:34;13.27;;;8.50;;
25153;SDS011;47555;51.038;6.280;2024-02-16T13:33:00;14.90;;;9.27;;
25153;SDS011;47555;51.038;6.280;2024-02-16T13:35:26;16.27;;;9.63;;
25153;SDS011;47555;51.038;6.280;2024-02-16T13:37:53;20.08;;;10.55;;
25153;SDS011;47555;51.038;6.280;2024-02-16T13:40:19;14.48;;;8.60;;
25153;SDS011;47555;51.038;6.280;2024-02-16T13:42:46;17.35;;;9.90;;
25153;SDS011;47555;51.038;6.280;2024-02-16T13:45:13;18.73;;;9.75;;
25153;SDS011;47555;51.038;6.280;2024-02-16T13:47:39;14.05;;;8.90;;
25153;SDS011;47555;51.038;6.280;2024-02-16T13:50:08;16.52;;;9.60;;
25153;SDS011;47555;51.038;6.280;2024-02-16T13:52:34;18.13;;;9.48;;
25153;SDS011;47555;51.038;6.280;2024-02-16T13:55:00;15.07;;;9.07;;
25153;SDS011;47555;51.038;6.280;2024-02-16T13:57:26;13.02;;;8.52;;
25153;SDS011;47555;51.038;6.280;2024-02-16T13:59:52;15.93;;;9.98;;
25153;SDS011;47555;51.038;6.280;2024-02-16T14:02:18;20.58;;;11.43;;
25153;SDS011;47555;51.038;6.280;2024-02-16T14:04:44;17.13;;;9.45;;
25153;SDS011;47555;51.038;6.280;2024-02-16T14:07:11;13.02;;;9.10;;
25153;SDS011;47555;51.038;6.280;2024-02-16T14:09:37;13.57;;;9.13;;
25153;SDS011;47555;51.038;6.280;2024-02-16T14:12:03;14.07;;;9.55;;
25153;SDS011;47555;51.038;6.280;2024-02-16T14:14:29;11.13;;;8.73;;
25153;SDS011;47555;51.038;6.280;2024-02-16T14:16:55;14.32;;;8.50;;
25153;SDS011;47555;51.038;6.280;2024-02-16T14:19:22;12.43;;;8.45;;
25153;SDS011;47555;51.038;6.280;2024-02-16T14:21:47;13.85;;;8.73;;
25153;SDS011;47555;51.038;6.280;2024-02-16T14:24:13;13.13;;;8.77;;
25153;SDS011;47555;51.038;6.280;2024-02-16T14:26:41;12.55;;;8.13;;
25153;SDS011;47555;51.038;6.280;2024-02-16T14:29:07;15.35;;;8.85;;
25153;SDS011;47555;51.038;6.280;2024-02-16T14:31:33;13.88;;;8.65;;
25153;SDS011;47555;51.038;6.280;2024-02-16T14:34:00;15.07;;;8.48;;
25153;SDS011;47555;51.038;6.280;2024-02-16T14:36:26;12.27;;;8.02;;
25153;SDS011;47555;51.038;6.280;2024-02-16T14:38:52;13.98;;;8.13;;
25153;SDS011;47555;51.038;6.280;2024-02-16T14:41:18;14.00;;;8.55;;